Time;durP1;ratioP1;P1;durP2;ratioP2;P2;SDS_P1;SDS_P2;PMS_P1;PMS_P2;Temp;Humidity;BMP_temperature;BMP_pressure;BME280_temperature;BME280_humidity;BME280_pressure;Samples;Min_cycle;Max_cycle;Signal;HPM_P1;HPM_P2
2022/11/09 00:01:41;;;;;;;7.55;2.58;;;;;;;10.27;54.31;100420.84;4971546;28;20491;-69
2022/11/09 00:04:09;;;;;;;8.50;2.53;;;;;;;10.46;53.82;100417.84;4972411;28;20058;-70
2022/11/09 00:06:35;;;;;;;6.13;2.40;;;;;;;10.43;53.84;100418.16;4971975;28;20060;-69
2022/11/09 00:09:05;;;;;;;5.13;2.22;;;;;;;10.33;54.28;100420.16;4972879;28;20109;-69
2022/11/09 00:11:35;;;;;;;4.32;2.08;;;;;;;10.56;53.40;100427.59;4972353;28;20050;-68
2022/11/09 00:14:01;;;;;;;4.30;2.38;;;;;;;10.55;53.50;100424.09;4972509;28;20053;-70
2022/11/09 00:16:28;;;;;;;7.25;2.15;;;;;;;10.61;53.35;100414.50;4972656;28;20047;-69
2022/11/09 00:18:54;;;;;;;5.50;2.58;;;;;;;10.49;53.66;100417.50;4972007;28;20042;-70
2022/11/09 00:21:23;;;;;;;7.82;2.38;;;;;;;10.50;53.71;100419.19;4965983;28;20053;-70
2022/11/09 00:23:50;;;;;;;4.22;2.33;;;;;;;10.60;53.20;100423.56;4971248;28;20047;-69
2022/11/09 00:26:18;;;;;;;5.63;2.08;;;;;;;10.56;53.53;100411.50;4973037;28;20051;-68
2022/11/09 00:28:45;;;;;;;4.50;2.20;;;;;;;10.62;53.24;100405.47;4972833;28;20051;-69
2022/11/09 00:31:22;;;;;;;7.05;2.30;;;;;;;10.63;53.35;100416.03;4971790;28;20440;-68
2022/11/09 00:33:50;;;;;;;5.30;2.30;;;;;;;10.43;53.87;100418.16;4971910;28;20105;-69
2022/11/09 00:36:17;;;;;;;5.35;2.00;;;;;;;10.56;53.36;100411.50;4971909;28;20047;-69
2022/11/09 00:38:49;;;;;;;3.70;1.73;;;;;;;10.50;53.65;100408.47;4971993;28;20558;-68
2022/11/09 00:41:16;;;;;;;4.15;2.20;;;;;;;10.52;53.65;100412.84;4972760;28;20061;-69
2022/11/09 00:43:43;;;;;;;7.72;2.17;;;;;;;10.46;53.73;100407.09;4975762;28;20042;-69
2022/11/09 00:46:09;;;;;;;8.63;2.22;;;;;;;10.59;53.39;100405.81;4973628;28;20070;-69
2022/11/09 00:48:36;;;;;;;8.40;2.20;;;;;;;10.66;53.25;100409.50;4971698;28;20491;-68
2022/11/09 00:51:03;;;;;;;6.28;2.05;;;;;;;10.50;53.50;100408.47;4971789;28;20053;-68
2022/11/09 00:53:30;;;;;;;10.75;2.47;;;;;;;10.52;53.53;100405.63;4972119;28;20047;-69
2022/11/09 00:56:06;;;;;;;5.18;2.05;;;;;;;10.46;53.64;100393.69;4971832;28;20411;-70
2022/11/09 00:58:34;;;;;;;4.80;2.35;;;;;;;10.36;53.77;100406.44;4971377;28;20046;-69
2022/11/09 01:01:16;;;;;;;3.10;1.70;;;;;;;10.52;53.51;100411.00;4970945;28;20046;-69
2022/11/09 01:03:44;;;;;;;5.65;2.65;;;;;;;10.50;53.41;100408.47;4971532;28;20050;-68
2022/11/09 01:06:16;;;;;;;6.85;2.55;;;;;;;10.43;53.66;100396.72;4971255;28;20058;-69
2022/11/09 01:08:42;;;;;;;;;;;;;;;10.36;53.89;100401.06;4972304;28;20047;-68
2022/11/09 01:11:10;;;;;;;7.13;2.33;;;;;;;10.45;53.64;100402.75;4971416;28;19922;-70
2022/11/09 01:13:37;;;;;;;9.02;2.30;;;;;;;10.42;53.81;100402.25;4970141;28;20066;-69
2022/11/09 01:16:07;;;;;;;4.65;2.17;;;;;;;10.52;53.59;100399.44;4970823;28;20419;-70
2022/11/09 01:18:34;;;;;;;6.53;2.20;;;;;;;10.39;53.86;100398.06;4971520;28;20047;-68
2022/11/09 01:21:02;;;;;;;5.78;2.30;;;;;;;10.32;54.00;100396.22;4969975;28;20062;-69
2022/11/09 01:23:29;;;;;;;8.15;2.42;;;;;;;10.28;54.13;100393.03;4971135;28;20051;-70
2022/11/09 01:25:57;;;;;;;6.22;2.28;;;;;;;10.18;54.56;100397.72;4972369;28;20130;-68
2022/11/09 01:28:24;;;;;;;8.48;2.15;;;;;;;10.11;54.82;100391.34;4971562;28;20058;-68
2022/11/09 01:30:51;;;;;;;5.68;2.15;;;;;;;10.10;54.70;100389.63;4969716;28;20053;-70
2022/11/09 01:33:17;;;;;;;7.70;2.20;;;;;;;9.97;55.31;100382.94;4971742;28;20051;-69
2022/11/09 01:35:44;;;;;;;6.93;2.50;;;;;;;10.00;55.25;100385.28;4970910;28;20062;-69
2022/11/09 01:38:11;;;;;;;3.53;2.10;;;;;;;9.88;55.68;100386.59;4971264;28;20063;-69
2022/11/09 01:40:39;;;;;;;5.68;2.17;;;;;;;9.69;56.14;100376.16;4970831;28;20439;-69
2022/11/09 01:43:17;;;;;;;4.00;2.38;;;;;;;9.89;55.76;100392.78;4970708;28;20066;-70
2022/11/09 01:46:17;;;;;;;5.38;2.35;;;;;;;9.79;55.81;100382.22;4971197;28;20055;-69
2022/11/09 01:48:59;;;;;;;4.65;2.28;;;;;;;9.83;55.87;100388.09;4971157;28;20047;-68
2022/11/09 01:51:32;;;;;;;7.80;2.35;;;;;;;9.81;55.88;100385.56;4971035;28;20053;-68
2022/11/09 01:54:14;;;;;;;9.05;2.33;;;;;;;9.76;56.05;100387.91;4970832;28;20483;-69
2022/11/09 01:56:43;;;;;;;4.70;2.47;;;;;;;9.76;56.05;100391.41;4971665;28;20038;-69
2022/11/09 01:59:19;;;;;;;5.85;2.22;;;;;;;9.79;56.07;100379.53;4970704;28;20047;-68
2022/11/09 02:01:46;;;;;;;3.55;2.03;;;;;;;9.70;56.39;100369.81;4970813;28;20388;-69
2022/11/09 02:04:21;;;;;;;7.80;2.35;;;;;;;9.30;57.10;100363.28;4970241;28;20054;-68
2022/11/09 02:07:22;;;;;;;5.32;2.33;;;;;;;9.47;56.90;100354.34;4971541;28;20077;-69
2022/11/09 02:10:01;;;;;;;4.72;2.20;;;;;;;9.41;57.24;100352.31;4971075;28;20093;-69
2022/11/09 02:12:31;;;;;;;6.97;2.63;;;;;;;9.27;57.72;100350.25;4971006;28;20039;-68
2022/11/09 02:15:00;;;;;;;11.35;2.65;;;;;;;9.06;57.96;100343.41;4970794;28;20402;-69
2022/11/09 02:17:28;;;;;;;5.65;2.35;;;;;;;9.38;57.30;100347.28;4973072;28;20042;-70
2022/11/09 02:19:57;;;;;;;6.20;2.17;;;;;;;9.27;57.61;100347.56;4974294;28;20261;-69
2022/11/09 02:22:24;;;;;;;4.65;2.33;;;;;;;9.17;58.17;100339.63;4974258;28;20065;-70
2022/11/09 02:24:51;;;;;;;5.22;2.58;;;;;;;9.46;57.28;100343.78;4974954;28;20051;-69
2022/11/09 02:27:22;;;;;;;9.60;2.25;;;;;;;9.22;57.62;100353.34;4974130;28;20061;-69
2022/11/09 02:29:48;;;;;;;7.05;2.30;;;;;;;9.35;57.56;100347.59;4974294;28;20491;-69
2022/11/09 02:32:19;;;;;;;5.85;2.35;;;;;;;9.42;57.19;100347.78;4973444;28;20058;-70
2022/11/09 02:34:46;;;;;;;5.57;2.28;;;;;;;9.40;57.19;100350.59;4973789;28;20047;-70
2022/11/09 02:37:12;;;;;;;5.32;2.30;;;;;;;9.36;57.37;100343.91;4975112;28;20495;-69
2022/11/09 02:39:39;;;;;;;10.25;2.72;;;;;;;9.28;57.53;100346.56;4973582;28;20050;-69
2022/11/09 02:42:08;;;;;;;5.47;2.50;;;;;;;9.27;57.53;100342.22;4974274;28;20054;-69
2022/11/09 02:44:46;;;;;;;3.42;1.90;;;;;;;9.23;57.50;100338.13;4974219;28;20058;-69
2022/11/09 02:47:13;;;;;;;4.22;2.20;;;;;;;9.00;58.11;100330.69;4973630;28;20051;-69
2022/11/09 02:49:40;;;;;;;4.45;2.55;;;;;;;9.13;57.89;100334.72;4973807;28;20491;-69
2022/11/09 02:52:06;;;;;;;3.58;2.00;;;;;;;8.89;58.75;100336.31;4974322;28;20530;-70
2022/11/09 02:54:33;;;;;;;6.78;2.60;;;;;;;9.11;57.98;100344.78;4974202;28;20501;-69
2022/11/09 02:56:59;;;;;;;4.95;2.40;;;;;;;9.26;57.48;100353.91;4972267;28;20046;-69
2022/11/09 02:59:25;;;;;;;6.05;2.38;;;;;;;9.31;57.20;100349.75;4980851;28;20042;-69
2022/11/09 03:01:52;;;;;;;9.93;2.35;;;;;;;9.16;57.31;100351.34;4974193;28;20057;-68
2022/11/09 03:04:18;;;;;;;6.13;2.03;;;;;;;9.30;57.18;100348.09;4973723;28;20483;-71
2022/11/09 03:06:45;;;;;;;6.63;2.33;;;;;;;9.04;57.87;100336.53;4974197;28;20046;-68
2022/11/09 03:09:12;;;;;;;5.50;2.55;;;;;;;8.92;58.29;100333.31;4973668;28;20058;-68
2022/11/09 03:11:40;;;;;;;5.00;2.33;;;;;;;8.93;58.40;100340.34;4972771;28;20081;-68
2022/11/09 03:14:08;;;;;;;5.75;2.65;;;;;;;8.85;58.57;100340.31;4973011;28;20043;-70
2022/11/09 03:16:36;;;;;;;4.32;2.25;;;;;;;9.03;58.14;100326.84;4971277;28;20043;-69
2022/11/09 03:19:03;;;;;;;4.75;2.25;;;;;;;8.90;58.49;100323.78;4972104;28;20043;-70
2022/11/09 03:21:29;;;;;;;5.80;2.38;;;;;;;8.79;58.43;100315.00;4974116;28;20435;-69
2022/11/09 03:23:55;;;;;;;3.60;1.90;;;;;;;9.04;58.40;100324.00;4972603;28;20097;-70
2022/11/09 03:26:22;;;;;;;3.15;2.13;;;;;;;9.00;58.18;100314.63;4973604;28;20061;-68
2022/11/09 03:28:49;;;;;;;5.50;2.60;;;;;;;9.11;57.96;100328.72;4972334;28;20063;-68
2022/11/09 03:31:16;;;;;;;8.10;2.35;;;;;;;9.18;57.57;100313.69;4973373;28;20422;-68
2022/11/09 03:33:42;;;;;;;5.50;2.33;;;;;;;9.21;57.52;100332.13;4971464;28;20396;-70
2022/11/09 03:36:10;;;;;;;4.35;2.13;;;;;;;9.10;57.78;100325.22;4972431;28;20047;-69
2022/11/09 03:38:36;;;;;;;4.78;2.22;;;;;;;9.19;57.31;100328.75;4972866;28;20479;-68
2022/11/09 03:41:02;;;;;;;3.38;2.13;;;;;;;9.07;57.86;100334.38;4972970;28;20051;-69
2022/11/09 03:43:29;;;;;;;7.82;2.42;;;;;;;9.19;57.49;100342.13;4973004;28;20047;-69
2022/11/09 03:45:56;;;;;;;5.70;2.17;;;;;;;9.25;57.24;100338.84;4972735;28;20053;-68
2022/11/09 03:48:22;;;;;;;2.70;1.85;;;;;;;9.35;57.14;100333.38;4972499;28;20050;-69
2022/11/09 03:50:49;;;;;;;4.57;1.98;;;;;;;9.28;56.91;100336.69;4972157;28;20043;-69
2022/11/09 03:53:16;;;;;;;2.55;1.60;;;;;;;9.27;57.18;100344.88;4972408;28;20051;-70
2022/11/09 03:55:43;;;;;;;4.65;2.22;;;;;;;9.48;56.52;100347.16;4972650;28;20078;-69
2022/11/09 03:58:12;;;;;;;4.95;2.30;;;;;;;9.57;56.34;100351.50;4971924;28;20042;-69
2022/11/09 04:00:38;;;;;;;7.70;1.98;;;;;;;9.90;55.36;100365.00;4971065;28;20418;-69
2022/11/09 04:03:05;;;;;;;6.68;2.30;;;;;;;9.90;55.63;100371.19;4971069;28;20057;-69
2022/11/09 04:05:31;;;;;;;3.53;2.03;;;;;;;9.80;56.29;100362.47;4973754;28;20079;-68
2022/11/09 04:07:58;;;;;;;7.30;2.22;;;;;;;9.74;56.25;100363.09;4972324;28;20043;-68
2022/11/09 04:10:25;;;;;;;4.82;2.17;;;;;;;9.74;56.63;100366.63;4972407;28;20046;-68
2022/11/09 04:12:52;;;;;;;3.17;1.95;;;;;;;9.79;56.58;100358.13;4970366;28;20043;-70
2022/11/09 04:15:19;;;;;;;5.10;1.95;;;;;;;9.94;56.29;100359.13;4971858;28;20077;-69
2022/11/09 04:17:54;;;;;;;4.82;2.30;;;;;;;9.89;56.57;100356.13;4971941;28;20093;-68
2022/11/09 04:20:20;;;;;;;5.55;2.22;;;;;;;9.94;56.69;100351.09;4971518;28;20419;-68
2022/11/09 04:22:56;;;;;;;3.92;2.13;;;;;;;9.87;57.26;100349.25;4971263;28;20062;-68
2022/11/09 04:25:24;;;;;;;5.85;2.53;;;;;;;9.83;57.61;100338.03;4971816;28;20043;-70
2022/11/09 04:27:57;;;;;;;6.03;2.45;;;;;;;9.66;57.92;100336.31;4971892;28;20050;-68
2022/11/09 04:30:26;;;;;;;4.45;2.00;;;;;;;9.73;58.34;100340.84;4971234;28;20043;-69
2022/11/09 04:32:54;;;;;;;9.65;2.75;;;;;;;9.61;59.35;100336.78;4972318;28;20388;-69
2022/11/09 04:35:21;;;;;;;3.55;2.10;;;;;;;9.77;59.22;100342.19;4971178;28;20050;-69
2022/11/09 04:38:02;;;;;;;4.07;2.33;;;;;;;9.71;59.14;100342.00;4970878;28;20419;-69
2022/11/09 04:40:31;;;;;;;8.70;2.35;;;;;;;9.60;59.46;100343.16;4972124;28;20043;-69
2022/11/09 04:43:02;;;;;;;5.03;2.42;;;;;;;9.61;60.24;100352.84;4971916;28;20399;-69
2022/11/09 04:45:29;;;;;;;;;;;;;;;9.73;60.08;100348.88;4972442;28;20046;-70
2022/11/09 04:48:04;;;;;;;5.78;2.55;;;;;;;9.60;60.44;100345.00;4970551;28;19922;-69
2022/11/09 04:50:30;;;;;;;6.15;2.95;;;;;;;9.72;60.36;100349.06;4971748;28;20510;-69
2022/11/09 04:53:08;;;;;;;5.57;2.55;;;;;;;9.80;60.03;100336.50;4972037;28;20047;-70
2022/11/09 04:55:35;;;;;;;5.78;2.00;;;;;;;9.82;60.25;100344.41;4971275;28;20047;-69
2022/11/09 04:58:01;;;;;;;7.68;2.67;;;;;;;9.70;60.54;100345.69;4963924;28;20054;-68
2022/11/09 05:00:28;;;;;;;7.82;2.65;;;;;;;9.69;60.67;100355.56;4971101;28;20054;-69
2022/11/09 05:02:58;;;;;;;4.57;2.83;;;;;;;9.62;61.20;100361.75;4971705;28;20115;-68
2022/11/09 05:05:25;;;;;;;6.88;3.05;;;;;;;9.76;60.86;100361.94;4971147;28;20495;-70
2022/11/09 05:07:52;;;;;;;7.25;2.85;;;;;;;9.67;61.60;100356.72;4970849;28;20464;-69
2022/11/09 05:10:18;;;;;;;8.80;2.75;;;;;;;9.57;61.78;100352.34;4971352;28;20055;-68
2022/11/09 05:12:44;;;;;;;5.97;2.78;;;;;;;9.69;61.57;100360.94;4970562;28;20054;-70
2022/11/09 05:15:11;;;;;;;6.53;2.70;;;;;;;9.69;61.51;100360.94;4970042;28;20427;-68
2022/11/09 05:17:38;;;;;;;5.93;2.80;;;;;;;9.64;61.62;100368.59;4971035;28;20054;-69
2022/11/09 05:20:05;;;;;;;8.20;2.75;;;;;;;9.80;61.57;100363.28;4971634;28;20054;-70
2022/11/09 05:25:16;;;;;;;5.05;2.58;;;;;;;9.40;63.05;100357.81;4970884;28;20056;-69
2022/11/09 05:27:42;;;;;;;6.18;2.85;;;;;;;9.38;62.77;100349.94;4977374;28;20042;-68
2022/11/09 05:30:09;;;;;;;7.13;2.65;;;;;;;9.61;62.48;100357.38;4970509;28;20054;-68
2022/11/09 05:32:38;;;;;;;7.47;3.10;;;;;;;9.53;62.95;100360.88;4970531;28;20054;-70
2022/11/09 05:35:05;;;;;;;4.93;2.70;;;;;;;9.61;62.85;100368.09;4971301;28;20046;-68
2022/11/09 05:37:31;;;;;;;7.15;3.15;;;;;;;9.79;62.75;100383.06;4971073;28;20062;-68
2022/11/09 05:39:58;;;;;;;5.47;2.88;;;;;;;9.53;63.44;100371.59;4970860;28;20145;-69
2022/11/09 05:42:24;;;;;;;8.52;2.72;;;;;;;9.70;63.05;100367.13;4970895;28;20050;-70
2022/11/09 05:44:51;;;;;;;4.13;2.20;;;;;;;9.85;62.66;100372.69;4971407;28;20439;-69
2022/11/09 05:47:19;;;;;;;6.15;2.85;;;;;;;9.83;62.54;100363.97;4970351;28;20055;-69
2022/11/09 05:49:45;;;;;;;5.00;2.80;;;;;;;9.92;62.35;100369.16;4970937;28;20486;-69
2022/11/09 05:52:12;;;;;;;6.70;2.55;;;;;;;9.87;62.51;100366.16;4973469;28;20491;-70
2022/11/09 05:54:38;;;;;;;8.38;2.70;;;;;;;9.87;62.62;100371.53;4975334;28;20513;-69
2022/11/09 05:57:05;;;;;;;6.90;2.92;;;;;;;9.96;62.39;100367.88;4975654;28;20050;-68
2022/11/09 05:59:31;;;;;;;7.07;2.65;;;;;;;9.85;62.27;100370.81;4975094;28;20039;-69
2022/11/09 06:01:58;;;;;;;10.52;3.03;;;;;;;10.15;61.78;100363.19;4974729;28;20051;-70
2022/11/09 06:04:24;;;;;;;6.43;2.35;;;;;;;9.97;61.71;100361.50;4973612;28;20075;-69
2022/11/09 06:06:51;;;;;;;8.98;2.67;;;;;;;9.98;61.84;100371.19;4973389;28;20050;-68
2022/11/09 06:09:17;;;;;;;5.78;2.78;;;;;;;9.76;62.03;100375.34;4974365;28;20057;-68
2022/11/09 06:11:44;;;;;;;7.55;2.80;;;;;;;9.76;62.25;100379.88;4974257;28;20050;-69
2022/11/09 06:14:10;;;;;;;4.47;2.50;;;;;;;9.88;61.66;100380.38;4974101;28;20050;-68
2022/11/09 06:16:37;;;;;;;8.82;2.88;;;;;;;9.97;61.53;100390.97;4974409;28;20050;-70
2022/11/09 06:19:04;;;;;;;5.25;2.60;;;;;;;9.82;61.79;100387.25;4975155;28;20054;-68
2022/11/09 06:21:30;;;;;;;5.75;3.10;;;;;;;9.84;61.69;100393.28;4974213;28;20061;-68
2022/11/09 06:23:57;;;;;;;7.97;2.40;;;;;;;9.91;61.54;100394.28;4972339;28;20054;-69
2022/11/09 06:26:23;;;;;;;5.78;2.72;;;;;;;10.04;61.36;100407.22;4974141;28;20050;-68
2022/11/09 06:28:49;;;;;;;6.53;2.75;;;;;;;10.02;61.23;100399.34;4973644;28;20074;-69
2022/11/09 06:31:16;;;;;;;8.65;2.97;;;;;;;9.97;61.31;100406.22;4974386;28;20047;-70
2022/11/09 06:33:43;;;;;;;10.68;2.83;;;;;;;9.96;61.28;100399.19;4973866;28;20118;-70
2022/11/09 06:36:10;;;;;;;6.63;2.83;;;;;;;9.98;61.33;100402.53;4973972;28;20047;-68
2022/11/09 06:38:37;;;;;;;7.53;2.70;;;;;;;9.92;61.54;100398.66;4972975;28;20141;-69
2022/11/09 06:41:03;;;;;;;6.07;2.55;;;;;;;10.00;61.47;100398.69;4974266;28;20046;-68
2022/11/09 06:43:30;;;;;;;7.97;2.67;;;;;;;10.06;61.47;100401.69;4973946;28;20046;-69
2022/11/09 06:45:56;;;;;;;6.40;2.95;;;;;;;10.00;61.51;100408.56;4973844;28;20049;-69
2022/11/09 06:48:23;;;;;;;6.80;2.88;;;;;;;9.99;61.72;100409.53;4974230;28;20051;-68
2022/11/09 06:50:49;;;;;;;6.40;3.00;;;;;;;10.00;61.65;100408.56;4972008;28;20046;-67
2022/11/09 06:53:17;;;;;;;6.20;3.50;;;;;;;9.84;61.91;100406.66;4974397;28;20058;-68
2022/11/09 06:55:44;;;;;;;13.40;4.00;;;;;;;10.13;62.08;100416.13;4973101;28;20133;-68
2022/11/09 06:58:16;;;;;;;;;;;;;;;9.89;62.85;100420.44;4974304;28;20046;-68
2022/11/09 07:00:43;;;;;;;9.10;3.28;;;;;;;9.77;63.48;100427.06;4973168;28;20386;-68
2022/11/09 07:03:18;;;;;;;8.40;3.78;;;;;;;9.77;63.15;100433.28;4973090;28;20082;-69
2022/11/09 07:05:46;;;;;;;10.20;3.08;;;;;;;9.82;63.47;100418.53;4973594;28;20046;-68
2022/11/09 07:08:14;;;;;;;5.20;2.90;;;;;;;9.78;64.22;100418.88;4973514;28;20054;-68
2022/11/09 07:10:41;;;;;;;10.43;4.53;;;;;;;9.69;65.25;100429.75;4967843;28;20046;-68
2022/11/09 07:13:08;;;;;;;8.63;3.15;;;;;;;9.49;65.91;100424.63;4973844;28;20050;-69
2022/11/09 07:15:36;;;;;;;9.40;3.20;;;;;;;9.55;66.49;100407.91;4973001;28;20050;-69
2022/11/09 07:18:04;;;;;;;7.68;3.05;;;;;;;9.59;66.30;100407.59;4973595;28;20046;-70
2022/11/09 07:20:31;;;;;;;5.07;3.05;;;;;;;9.59;66.91;100402.25;4974260;28;20046;-70
2022/11/09 07:22:57;;;;;;;10.32;3.45;;;;;;;9.73;66.91;100390.91;4974155;28;20517;-70
2022/11/09 07:25:26;;;;;;;11.55;2.97;;;;;;;9.76;66.85;100394.09;4973199;28;20054;-68
2022/11/09 07:27:52;;;;;;;6.30;3.25;;;;;;;9.60;68.08;100401.22;4973851;28;20046;-68
2022/11/09 07:30:19;;;;;;;8.10;3.25;;;;;;;9.40;68.72;100384.56;4974129;28;20055;-70
2022/11/09 07:32:45;;;;;;;8.90;3.83;;;;;;;9.47;69.19;100378.44;4973178;28;20496;-70
2022/11/09 07:35:32;;;;;;;10.75;4.22;;;;;;;9.44;69.85;100348.44;4973465;28;20407;-70
2022/11/09 07:38:00;;;;;;;9.20;3.72;;;;;;;9.13;70.65;100361.50;4973004;28;20422;-69
2022/11/09 07:40:27;;;;;;;9.05;3.88;;;;;;;8.73;73.01;100365.63;4973652;28;20063;-69
2022/11/09 07:42:58;;;;;;;8.15;3.78;;;;;;;8.95;72.26;100389.16;4974139;28;20085;-71
2022/11/09 07:45:24;;;;;;;7.32;3.85;;;;;;;9.18;71.60;100410.03;4972902;28;20550;-71
2022/11/09 07:47:58;;;;;;;8.98;3.70;;;;;;;9.27;71.48;100442.09;4973648;28;20047;-71
2022/11/09 07:50:26;;;;;;;10.43;3.95;;;;;;;9.41;70.72;100443.34;4973258;28;20057;-70
2022/11/09 07:52:57;;;;;;;10.35;4.15;;;;;;;9.30;71.70;100427.53;4973690;28;20053;-70
2022/11/09 07:55:25;;;;;;;8.77;3.80;;;;;;;9.25;71.66;100432.53;4974103;28;20055;-69
2022/11/09 07:58:04;;;;;;;6.68;4.03;;;;;;;9.24;71.18;100438.91;4972562;28;20070;-70
2022/11/09 08:00:33;;;;;;;11.02;3.53;;;;;;;9.20;71.20;100433.00;4973062;28;20043;-69
2022/11/09 08:03:00;;;;;;;15.07;4.32;;;;;;;9.26;71.26;100439.56;4973317;28;20046;-70
2022/11/09 08:05:27;;;;;;;28.55;5.82;;;;;;;9.27;71.39;100442.09;4971353;28;20055;-70
2022/11/09 08:07:59;;;;;;;10.88;4.57;;;;;;;9.34;71.16;100436.94;4972402;28;20490;-69
2022/11/09 08:10:27;;;;;;;13.63;5.18;;;;;;;9.41;70.89;100432.63;4972820;28;20055;-70
2022/11/09 08:12:55;;;;;;;8.75;5.05;;;;;;;9.23;71.06;100415.75;4971951;28;20408;-69
2022/11/09 08:15:23;;;;;;;10.40;4.22;;;;;;;9.25;71.00;100437.88;4972072;28;20080;-71
2022/11/09 08:17:49;;;;;;;8.60;4.32;;;;;;;9.35;71.30;100443.13;4972379;28;20046;-70
2022/11/09 08:20:16;;;;;;;9.85;5.28;;;;;;;9.27;70.96;100434.06;4972609;28;20061;-70
2022/11/09 08:22:44;;;;;;;7.30;3.85;;;;;;;9.26;71.70;100437.72;4972022;28;20038;-71
2022/11/09 08:25:12;;;;;;;14.23;3.63;;;;;;;9.21;71.56;100434.66;4973803;28;20459;-70
2022/11/09 08:27:39;;;;;;;14.90;3.83;;;;;;;9.42;71.23;100434.28;4971743;28;20047;-69
2022/11/09 08:30:09;;;;;;;7.70;4.30;;;;;;;9.24;71.25;100436.22;4966291;28;20051;-69
2022/11/09 08:32:35;;;;;;;9.77;4.93;;;;;;;9.40;71.05;100420.22;4971833;28;20047;-69
2022/11/09 08:35:02;;;;;;;12.70;4.93;;;;;;;9.30;71.27;100424.84;4972412;28;20054;-69
2022/11/09 08:37:29;;;;;;;16.77;4.40;;;;;;;9.49;71.06;100407.72;4972578;28;20495;-69
2022/11/09 08:39:55;;;;;;;13.63;4.50;;;;;;;9.45;71.18;100430.47;4971861;28;20042;-68
2022/11/09 08:42:22;;;;;;;12.93;4.82;;;;;;;9.44;71.48;100436.81;4972360;28;20418;-70
2022/11/09 08:44:48;;;;;;;8.65;4.00;;;;;;;9.22;72.09;100432.81;4972620;28;20051;-69
2022/11/09 08:47:15;;;;;;;13.23;5.00;;;;;;;9.37;71.88;100441.97;4971865;28;20058;-70
2022/11/09 08:49:42;;;;;;;7.35;4.47;;;;;;;9.23;71.72;100445.19;4972583;28;20065;-70
2022/11/09 08:52:09;;;;;;;7.30;4.30;;;;;;;9.22;72.14;100446.19;4972490;28;20422;-70
2022/11/09 08:54:35;;;;;;;6.40;3.65;;;;;;;9.27;72.35;100441.25;4971368;28;20053;-70
2022/11/09 08:57:02;;;;;;;10.70;4.55;;;;;;;9.26;72.05;100442.22;4968372;28;20057;-70
2022/11/09 08:59:28;;;;;;;11.85;4.40;;;;;;;9.32;71.91;100453.16;4971525;28;20050;-70
2022/11/09 09:01:55;;;;;;;7.97;4.93;;;;;;;9.47;71.69;100442.72;4972266;28;20047;-70
2022/11/09 09:04:23;;;;;;;10.15;4.38;;;;;;;9.40;71.40;100451.50;4973143;28;20495;-70
2022/11/09 09:06:49;;;;;;;10.07;4.63;;;;;;;9.51;71.75;100454.78;4973072;28;20050;-70
2022/11/09 09:09:16;;;;;;;9.00;4.50;;;;;;;9.50;71.52;100458.44;4971929;28;20050;-69
2022/11/09 09:11:42;;;;;;;12.73;5.00;;;;;;;9.55;71.59;100458.81;4972065;28;20051;-69
2022/11/09 09:14:09;;;;;;;8.38;4.80;;;;;;;9.64;71.73;100464.19;4972202;28;20047;-69
2022/11/09 09:16:35;;;;;;;10.18;4.90;;;;;;;9.51;71.80;100453.94;4970631;28;20054;-69
2022/11/09 09:19:03;;;;;;;14.10;5.50;;;;;;;9.56;71.51;100456.97;4971237;28;20047;-69
2022/11/09 09:21:29;;;;;;;12.10;4.85;;;;;;;9.52;72.06;100447.56;4970600;28;20057;-69
2022/11/09 09:23:56;;;;;;;11.50;4.90;;;;;;;9.66;71.33;100460.34;4971644;28;20050;-69
2022/11/09 09:26:22;;;;;;;12.20;4.85;;;;;;;9.78;71.42;100453.69;4969302;28;20046;-71
2022/11/09 09:28:50;;;;;;;9.55;4.90;;;;;;;9.75;70.78;100459.41;4971815;28;20054;-70
2022/11/09 09:31:17;;;;;;;8.57;4.85;;;;;;;10.11;69.92;100464.53;4971422;28;20050;-70
2022/11/09 09:33:45;;;;;;;10.65;4.95;;;;;;;10.39;68.76;100478.50;4970033;28;20073;-68
2022/11/09 09:36:18;;;;;;;13.60;4.72;;;;;;;10.90;67.56;100470.38;4969552;28;20396;-68
2022/11/09 09:38:44;;;;;;;9.43;4.65;;;;;;;10.68;67.34;100480.75;4969585;28;20043;-70
2022/11/09 09:41:36;;;;;;;7.25;4.38;;;;;;;10.76;67.12;100479.94;4971492;28;20502;-69
2022/11/09 09:44:13;;;;;;;12.98;5.03;;;;;;;11.22;66.45;100488.28;4969838;28;20047;-68
2022/11/09 09:46:46;;;;;;;9.60;4.80;;;;;;;11.12;66.08;100493.81;4969549;28;20058;-69
2022/11/09 09:49:18;;;;;;;9.18;4.35;;;;;;;10.71;66.94;100498.34;4970379;28;20065;-69
2022/11/09 09:52:00;;;;;;;8.45;4.53;;;;;;;10.46;67.22;100498.28;4970322;28;20050;-70
2022/11/09 09:54:34;;;;;;;7.03;4.43;;;;;;;10.39;68.11;100493.75;4969655;28;20491;-69
2022/11/09 09:57:01;;;;;;;9.95;4.70;;;;;;;10.31;68.02;100502.63;4969654;28;20415;-68
2022/11/09 09:59:39;;;;;;;8.35;4.43;;;;;;;10.34;68.60;100504.13;4970149;28;20058;-67
2022/11/09 10:02:27;;;;;;;10.73;4.72;;;;;;;10.47;67.96;100516.06;4970201;28;20438;-70
2022/11/09 10:04:56;;;;;;;8.07;5.07;;;;;;;10.30;68.19;100511.66;4971498;28;20042;-68
2022/11/09 10:07:40;;;;;;;6.95;4.50;;;;;;;10.23;68.47;100508.78;4971489;28;20462;-68
2022/11/09 10:10:25;;;;;;;9.50;4.80;;;;;;;10.17;69.39;100506.78;4969024;28;20062;-69
2022/11/09 10:12:51;;;;;;;8.13;4.95;;;;;;;10.20;68.25;100508.28;4969251;28;20492;-67
2022/11/09 10:15:29;;;;;;;10.43;5.40;;;;;;;10.18;69.12;100510.28;4970750;28;20490;-69
2022/11/09 10:18:17;;;;;;;7.78;4.75;;;;;;;10.37;68.80;100498.44;4969807;28;20117;-69
2022/11/09 10:21:22;;;;;;;7.57;4.97;;;;;;;10.25;69.18;100501.44;4970035;28;20458;-69
2022/11/09 10:24:02;;;;;;;11.43;5.25;;;;;;;10.32;68.83;100485.53;4969071;28;20042;-70
2022/11/09 10:26:42;;;;;;;9.20;4.60;;;;;;;10.13;69.71;100491.16;4969802;28;20046;-68
2022/11/09 10:29:23;;;;;;;10.63;4.60;;;;;;;10.36;69.28;100486.88;4970124;28;20043;-69
2022/11/09 10:31:57;;;;;;;10.90;4.88;;;;;;;10.27;69.76;100482.53;4970351;28;20042;-69
2022/11/09 10:34:27;;;;;;;7.90;4.30;;;;;;;10.29;69.47;100480.50;4968484;28;20054;-68
2022/11/09 10:37:09;;;;;;;7.18;4.10;;;;;;;10.60;68.20;100478.06;4975247;28;20049;-68
2022/11/09 10:40:02;;;;;;;8.07;4.28;;;;;;;10.96;67.60;100478.59;4971272;28;20058;-68
2022/11/09 10:42:29;;;;;;;7.97;4.50;;;;;;;11.74;65.49;100474.41;4969611;28;20062;-68
2022/11/09 10:45:12;;;;;;;7.57;3.50;;;;;;;12.22;63.42;100464.44;4974298;28;20050;-70
2022/11/09 10:47:50;;;;;;;5.78;3.65;;;;;;;12.11;62.78;100459.47;4974373;28;20043;-69
2022/11/09 10:50:38;;;;;;;6.78;3.20;;;;;;;12.28;62.55;100458.34;4966592;28;20047;-69
2022/11/09 10:53:15;;;;;;;5.97;3.47;;;;;;;12.65;61.25;100462.09;4972119;28;20050;-70
2022/11/09 10:56:07;;;;;;;8.07;3.50;;;;;;;13.21;59.92;100449.16;4971617;28;20051;-68
2022/11/09 10:58:37;;;;;;;15.05;3.83;;;;;;;13.42;59.63;100458.38;4972682;28;20043;-68
2022/11/09 11:01:12;;;;;;;8.65;3.00;;;;;;;13.39;59.06;100456.06;4971238;28;20400;-68
2022/11/09 11:03:39;;;;;;;5.88;2.72;;;;;;;13.56;58.13;100446.75;4972784;28;20050;-70
2022/11/09 11:06:15;;;;;;;6.40;2.75;;;;;;;13.86;57.90;100436.81;4965020;28;20508;-69
2022/11/09 11:08:47;;;;;;;5.20;2.60;;;;;;;13.86;57.67;100438.69;4973663;28;20046;-68
2022/11/09 11:11:24;;;;;;;7.13;2.92;;;;;;;14.03;56.80;100432.88;4972782;28;20043;-70
2022/11/09 11:14:20;;;;;;;5.70;3.03;;;;;;;14.71;55.31;100446.03;4972442;28;20392;-69
2022/11/09 11:16:51;;;;;;;3.90;2.30;;;;;;;14.10;56.23;100437.53;4973530;28;20051;-68
2022/11/09 11:19:36;;;;;;;3.58;2.10;;;;;;;13.79;56.95;100452.09;4972942;28;20078;-69
2022/11/09 11:22:18;;;;;;;4.93;2.35;;;;;;;14.24;55.05;100432.06;4968176;28;20069;-70
2022/11/09 11:25:01;;;;;;;3.90;2.08;;;;;;;14.12;56.04;100439.00;4981946;28;20076;-68
2022/11/09 11:27:49;;;;;;;5.18;1.90;;;;;;;14.02;55.81;100439.31;4973292;28;20049;-68
2022/11/09 11:30:21;;;;;;;7.82;2.20;;;;;;;13.80;56.39;100448.34;4972415;28;20057;-68
2022/11/09 11:32:48;;;;;;;4.60;2.00;;;;;;;13.68;57.00;100439.88;4973224;28;20211;-70
2022/11/09 11:35:35;;;;;;;4.35;2.22;;;;;;;14.16;56.17;100431.38;4973072;28;20061;-69
2022/11/09 11:38:24;;;;;;;5.47;2.70;;;;;;;13.92;56.13;100438.78;4966342;28;20395;-69
2022/11/09 11:41:05;;;;;;;3.28;2.10;;;;;;;14.50;54.98;100433.38;4973199;28;20047;-70
2022/11/09 11:43:53;;;;;;;7.67;2.93;;;;;;;14.53;54.22;100428.44;4973319;28;20057;-69
2022/11/09 11:46:31;;;;;;;7.38;2.90;;;;;;;15.52;51.88;100421.28;4972397;28;20043;-70